San Francisco, California
Traffic Map
Current Weather Conditions
San Francisco, California
Few Clouds
Few Clouds
16°
Feels Like: 16°
Wind Chill: 16° Ceiling: Unl
Heat Index: 16° Visibility: 10mi
Dew Point: 11° Wind: 22mph
Humidity: 75% Direction: 300° (WNW)
Pressure: 29.83in Gusts: 0mph
Raw Report DataKSFO 290156Z 30019KT 10SM FEW006 FEW180 16/11 A2983 RMK AO2 PK WND 29026/0119 SLP101 T01560111
Traffic Incident Summary
Active as of:
Severity:
Category:
InformationThere was an issue retrieving the traffic information for this location. Please try a different location or try again shortly.
Advertisements
Track Severe Weather on mobile